createdAt,value
2022-10-09T14:07:19.227Z,17.05
2022-10-09T14:09:45.843Z,16.26
2022-10-09T14:12:12.400Z,16.01
2022-10-09T14:14:38.971Z,16.26
2022-10-09T14:17:05.518Z,16.09
2022-10-09T14:19:32.146Z,15.92
2022-10-09T14:21:58.686Z,15.80
2022-10-09T14:24:27.018Z,15.72
2022-10-09T14:26:53.673Z,15.62
2022-10-09T14:29:20.253Z,15.08
2022-10-09T14:31:49.749Z,15.31
2022-10-09T14:34:16.260Z,14.87
2022-10-09T14:36:42.840Z,14.49
2022-10-09T14:39:09.648Z,14.61
2022-10-09T14:41:37.957Z,14.40
2022-10-09T14:44:04.958Z,14.71
2022-10-09T14:46:33.931Z,14.91
2022-10-09T14:49:07.068Z,14.87
2022-10-09T14:51:37.058Z,14.84
2022-10-09T14:54:04.665Z,14.81
2022-10-09T14:56:31.657Z,14.69
2022-10-09T14:59:00.373Z,14.69
2022-10-09T15:01:27.249Z,14.61
2022-10-09T15:03:53.929Z,13.77
2022-10-09T15:06:24.144Z,14.47
2022-10-09T15:08:56.668Z,14.42
2022-10-09T15:11:24.259Z,13.98
2022-10-09T15:13:50.811Z,14.36
2022-10-09T15:16:18.942Z,13.72
2022-10-09T15:18:46.531Z,14.20
2022-10-09T15:21:15.748Z,13.59
2022-10-09T15:23:43.264Z,14.11
2022-10-09T15:26:10.618Z,13.51
2022-10-09T15:28:38.348Z,14.01
2022-10-09T15:31:06.972Z,13.99
2022-10-09T15:33:33.837Z,12.32
2022-10-09T15:36:00.404Z,13.24
2022-10-09T15:38:27.660Z,13.27
2022-10-09T15:40:56.158Z,13.55
2022-10-09T15:43:25.909Z,13.55
2022-10-09T15:45:54.198Z,12.70
2022-10-09T15:48:23.812Z,13.03
2022-10-09T15:50:53.453Z,13.58
2022-10-09T15:53:23.309Z,13.53
2022-10-09T15:55:52.108Z,13.35
2022-10-09T15:58:20.036Z,13.10
2022-10-09T16:00:48.722Z,13.30
2022-10-09T16:03:17.514Z,13.27
2022-10-09T16:05:48.368Z,13.18
2022-10-09T16:08:16.624Z,13.07
2022-10-09T16:10:48.606Z,12.44
2022-10-09T16:13:15.591Z,12.90
2022-10-09T16:15:43.391Z,12.81
2022-10-09T16:18:10.977Z,12.40
2022-10-09T16:20:39.892Z,12.42
2022-10-09T16:23:08.165Z,12.10
2022-10-09T16:25:35.875Z,12.51
2022-10-09T16:28:03.658Z,11.99
2022-10-09T16:30:30.587Z,11.93
2022-10-09T16:32:57.234Z,12.07
2022-10-09T16:35:24.223Z,12.24
2022-10-09T16:37:53.839Z,11.88
2022-10-09T16:40:25.440Z,12.10
2022-10-09T16:43:01.121Z,11.99
2022-10-09T16:45:30.031Z,11.94
2022-10-09T16:48:00.105Z,11.77
2022-10-09T16:50:27.165Z,11.81
2022-10-09T16:52:53.869Z,11.74
2022-10-09T16:55:20.428Z,11.63
2022-10-09T16:57:48.568Z,11.58
2022-10-09T17:00:19.058Z,10.86
2022-10-09T17:02:46.020Z,11.15
2022-10-09T17:05:13.357Z,11.43
2022-10-09T17:07:40.017Z,11.39
2022-10-09T17:10:07.130Z,11.34
2022-10-09T17:12:33.682Z,10.83
2022-10-09T17:15:00.234Z,11.24
2022-10-09T17:17:26.798Z,11.18
2022-10-09T17:19:53.502Z,11.13
2022-10-09T17:22:20.206Z,10.94
2022-10-09T17:24:46.870Z,10.78
2022-10-09T17:27:13.444Z,10.50
2022-10-09T17:29:40.072Z,10.95
2022-10-09T17:32:08.077Z,10.91
2022-10-09T17:34:34.680Z,10.86
2022-10-09T17:37:02.208Z,10.60
2022-10-09T17:39:28.781Z,10.75
2022-10-09T17:41:55.422Z,10.57
2022-10-09T17:44:23.397Z,9.69
2022-10-09T17:46:49.981Z,10.58
2022-10-09T17:49:16.607Z,10.51
2022-10-09T17:51:43.156Z,10.20
2022-10-09T17:54:19.751Z,10.42
2022-10-09T17:56:46.412Z,9.62
2022-10-09T17:59:13.049Z,10.29
2022-10-09T18:01:39.789Z,9.59
2022-10-09T18:04:06.484Z,10.20
2022-10-09T18:06:34.897Z,10.15
2022-10-09T18:09:01.637Z,9.93
2022-10-09T18:11:28.615Z,9.79
2022-10-09T18:13:55.295Z,9.75
2022-10-09T18:16:32.718Z,9.91
2022-10-09T18:19:03.583Z,9.86
2022-10-09T18:21:30.991Z,9.81
2022-10-09T18:23:57.525Z,8.29
2022-10-09T18:26:24.141Z,9.71
2022-10-09T18:28:50.705Z,9.01
2022-10-09T18:31:29.476Z,9.68
2022-10-09T18:33:57.701Z,9.19
2022-10-09T18:36:30.697Z,9.58
2022-10-09T18:39:15.462Z,9.55
2022-10-09T18:41:42.854Z,9.28
2022-10-09T18:44:17.622Z,9.17
2022-10-09T18:46:51.956Z,9.41
2022-10-09T18:49:22.603Z,9.47
2022-10-09T18:51:49.381Z,8.86
2022-10-09T18:54:18.271Z,9.41
2022-10-09T18:56:45.489Z,9.05
2022-10-09T18:59:16.210Z,9.00
2022-10-09T19:01:42.839Z,9.39
2022-10-09T19:04:09.391Z,9.37
2022-10-09T19:06:36.356Z,8.77
2022-10-09T19:09:04.118Z,9.10
2022-10-09T19:11:33.096Z,8.72
2022-10-09T19:14:00.870Z,9.26
2022-10-09T19:16:33.378Z,8.99
2022-10-09T19:19:00.029Z,8.70
2022-10-09T19:21:26.953Z,8.49
2022-10-09T19:23:53.999Z,8.48
2022-10-09T19:26:21.943Z,8.74
2022-10-09T19:28:48.700Z,9.04
2022-10-09T19:31:15.351Z,9.03
2022-10-09T19:33:43.057Z,8.99
2022-10-09T19:36:12.262Z,8.16
2022-10-09T19:38:38.839Z,8.95
2022-10-09T19:41:10.921Z,8.94
2022-10-09T19:43:38.315Z,8.92
2022-10-09T19:46:10.982Z,8.93
2022-10-09T19:48:38.161Z,8.39
2022-10-09T19:51:13.295Z,8.94
2022-10-09T19:53:39.917Z,8.74
2022-10-09T19:56:15.618Z,8.96
2022-10-09T19:58:43.374Z,8.95
2022-10-09T20:01:11.497Z,8.45
2022-10-09T20:03:40.386Z,8.81
2022-10-09T20:06:11.253Z,8.95
2022-10-09T20:08:39.932Z,8.96
2022-10-09T20:11:07.385Z,8.95
2022-10-09T20:13:36.118Z,8.94
2022-10-09T20:16:05.693Z,8.93
2022-10-09T20:18:33.138Z,8.94
2022-10-09T20:21:00.331Z,8.66
2022-10-09T20:23:26.987Z,8.18
2022-10-09T20:26:06.339Z,8.90
2022-10-09T20:28:34.539Z,8.90
2022-10-09T20:31:06.355Z,8.87
2022-10-09T20:33:34.147Z,8.86
2022-10-09T20:36:00.710Z,8.84
2022-10-09T20:38:27.862Z,8.82
2022-10-09T20:40:54.446Z,8.00
2022-10-09T20:43:20.992Z,8.78
2022-10-09T20:45:47.548Z,8.75
2022-10-09T20:48:14.152Z,8.61
2022-10-09T20:50:41.926Z,7.99
2022-10-09T20:53:12.501Z,7.69
2022-10-09T20:55:39.164Z,8.69
2022-10-09T20:58:05.896Z,7.71
2022-10-09T21:00:32.451Z,8.36
2022-10-09T21:02:59.069Z,8.66
2022-10-09T21:05:25.645Z,8.58
2022-10-09T21:07:52.257Z,8.01
2022-10-09T21:10:18.778Z,8.56
2022-10-09T21:12:45.321Z,8.54
2022-10-09T21:15:11.954Z,7.12
2022-10-09T21:17:38.639Z,8.59
2022-10-09T21:20:05.507Z,8.58
2022-10-09T21:22:32.098Z,8.57
2022-10-09T21:24:58.635Z,8.53
2022-10-09T21:27:25.235Z,7.80
2022-10-09T21:29:51.749Z,8.50
2022-10-09T21:32:18.330Z,7.58
2022-10-09T21:34:45.246Z,7.82
2022-10-09T21:37:21.530Z,7.99
2022-10-09T21:39:48.814Z,8.38
2022-10-09T21:42:22.418Z,8.38
2022-10-09T21:44:48.964Z,8.05
2022-10-09T21:47:18.570Z,7.88
2022-10-09T21:49:45.105Z,8.39
2022-10-09T21:52:11.668Z,7.56
2022-10-09T21:54:38.192Z,8.33
2022-10-09T21:57:04.771Z,8.10
2022-10-09T21:59:31.310Z,8.00
2022-10-09T22:01:57.865Z,7.90
2022-10-09T22:04:24.447Z,7.76
2022-10-09T22:06:51.014Z,8.53
2022-10-09T22:09:17.698Z,8.57
2022-10-09T22:11:44.897Z,8.59
2022-10-09T22:14:11.654Z,8.61
2022-10-09T22:16:38.268Z,7.82
2022-10-09T22:19:04.871Z,8.56
2022-10-09T22:21:31.482Z,8.63
2022-10-09T22:24:00.090Z,8.67
2022-10-09T22:26:26.837Z,7.44
2022-10-09T22:28:53.429Z,8.32
2022-10-09T22:31:25.666Z,7.96
2022-10-09T22:33:54.384Z,8.73
2022-10-09T22:36:23.820Z,8.76
2022-10-09T22:38:53.687Z,8.79
2022-10-09T22:41:22.001Z,8.82
2022-10-09T22:43:52.052Z,8.83
2022-10-09T22:46:30.436Z,7.98
2022-10-09T22:48:58.117Z,8.85
2022-10-09T22:51:27.153Z,8.86
2022-10-09T22:53:54.888Z,8.88
2022-10-09T22:56:29.185Z,8.91
2022-10-09T22:58:56.473Z,8.92
2022-10-09T23:01:45.301Z,8.96
2022-10-09T23:04:13.442Z,8.96
2022-10-09T23:06:41.596Z,8.96
2022-10-09T23:09:10.680Z,8.91
2022-10-09T23:11:37.241Z,8.88
2022-10-09T23:14:04.629Z,8.88
2022-10-09T23:16:31.457Z,8.88
2022-10-09T23:19:04.173Z,8.88
2022-10-09T23:21:33.226Z,8.85
2022-10-09T23:23:59.795Z,8.69
2022-10-09T23:26:29.123Z,8.33
2022-10-09T23:28:58.789Z,8.93
2022-10-09T23:31:26.042Z,8.66
2022-10-09T23:33:52.646Z,8.98
2022-10-09T23:36:21.577Z,9.01
2022-10-09T23:38:48.153Z,8.75
2022-10-09T23:41:17.456Z,8.67
2022-10-09T23:43:44.609Z,9.02
2022-10-09T23:46:20.799Z,9.02
2022-10-09T23:48:48.789Z,9.03
2022-10-09T23:51:16.974Z,8.95
2022-10-09T23:53:43.816Z,8.94
2022-10-09T23:56:31.565Z,9.04
2022-10-09T23:58:59.551Z,9.04
